sensor_id;sensor_type;location;lat;lon;timestamp;pressure;altitude;pressure_sealevel;temperature;humidity
59608;BME280;45426;44.726;10.390;2024-01-06T00:02:07;99149.41;;;7.71;100.00
59608;BME280;45426;44.726;10.390;2024-01-06T00:04:32;99151.16;;;7.51;100.00
59608;BME280;45426;44.726;10.390;2024-01-06T00:06:58;99145.56;;;7.72;100.00
59608;BME280;45426;44.726;10.390;2024-01-06T00:09:23;99142.09;;;7.87;100.00
59608;BME280;45426;44.726;10.390;2024-01-06T00:11:48;99134.28;;;7.70;100.00
59608;BME280;45426;44.726;10.390;2024-01-06T00:14:14;99145.06;;;7.82;100.00
59608;BME280;45426;44.726;10.390;2024-01-06T00:16:39;99145.56;;;7.72;100.00
59608;BME280;45426;44.726;10.390;2024-01-06T00:19:05;99147.94;;;7.61;100.00
59608;BME280;45426;44.726;10.390;2024-01-06T00:21:30;99147.72;;;7.66;100.00
59608;BME280;45426;44.726;10.390;2024-01-06T00:23:56;99153.34;;;7.61;100.00
59608;BME280;45426;44.726;10.390;2024-01-06T00:26:22;99140.97;;;7.60;100.00
59608;BME280;45426;44.726;10.390;2024-01-06T00:28:47;99152.78;;;7.68;100.00
59608;BME280;45426;44.726;10.390;2024-01-06T00:31:15;99159.94;;;7.76;100.00
59608;BME280;45426;44.726;10.390;2024-01-06T00:33:44;99139.66;;;7.54;100.00
59608;BME280;45426;44.726;10.390;2024-01-06T00:36:10;99149.66;;;7.53;100.00
59608;BME280;45426;44.726;10.390;2024-01-06T00:38:35;99148.78;;;7.77;100.00
59608;BME280;45426;44.726;10.390;2024-01-06T00:41:01;99132.03;;;7.72;100.00
59608;BME280;45426;44.726;10.390;2024-01-06T00:43:27;99146.06;;;7.62;100.00
59608;BME280;45426;44.726;10.390;2024-01-06T00:45:55;99146.44;;;7.76;100.00
59608;BME280;45426;44.726;10.390;2024-01-06T00:48:20;99127.56;;;7.64;100.00
59608;BME280;45426;44.726;10.390;2024-01-06T00:50:46;99129.22;;;7.40;100.00
59608;BME280;45426;44.726;10.390;2024-01-06T00:53:12;99127.50;;;7.76;100.00
59608;BME280;45426;44.726;10.390;2024-01-06T00:55:37;99135.34;;;7.65;100.00
59608;BME280;45426;44.726;10.390;2024-01-06T00:58:03;99139.44;;;8.03;100.00
59608;BME280;45426;44.726;10.390;2024-01-06T01:00:28;99136.16;;;7.53;100.00
59608;BME280;45426;44.726;10.390;2024-01-06T01:02:54;99133.91;;;7.84;100.00
59608;BME280;45426;44.726;10.390;2024-01-06T01:05:19;99128.69;;;7.91;100.00
59608;BME280;45426;44.726;10.390;2024-01-06T01:07:45;99126.78;;;7.91;100.00
59608;BME280;45426;44.726;10.390;2024-01-06T01:10:10;99116.66;;;7.88;100.00
59608;BME280;45426;44.726;10.390;2024-01-06T01:12:36;99113.25;;;7.91;100.00
59608;BME280;45426;44.726;10.390;2024-01-06T01:15:01;99123.41;;;8.10;100.00
59608;BME280;45426;44.726;10.390;2024-01-06T01:17:27;99118.41;;;7.96;100.00
59608;BME280;45426;44.726;10.390;2024-01-06T01:19:52;99121.97;;;7.85;100.00
59608;BME280;45426;44.726;10.390;2024-01-06T01:22:18;99109.22;;;7.85;100.00
59608;BME280;45426;44.726;10.390;2024-01-06T01:24:43;99114.19;;;7.83;100.00
59608;BME280;45426;44.726;10.390;2024-01-06T01:27:09;99122.72;;;7.85;100.00
59608;BME280;45426;44.726;10.390;2024-01-06T01:29:34;99121.00;;;7.93;100.00
59608;BME280;45426;44.726;10.390;2024-01-06T01:32:00;99120.34;;;7.68;100.00
59608;BME280;45426;44.726;10.390;2024-01-06T01:34:25;99127.66;;;7.67;100.00
59608;BME280;45426;44.726;10.390;2024-01-06T01:36:50;99117.75;;;7.87;100.00
59608;BME280;45426;44.726;10.390;2024-01-06T01:39:16;99116.22;;;7.86;100.00
59608;BME280;45426;44.726;10.390;2024-01-06T01:41:42;99123.53;;;7.86;100.00
59608;BME280;45426;44.726;10.390;2024-01-06T01:44:07;99111.56;;;7.71;100.00
59608;BME280;45426;44.726;10.390;2024-01-06T01:46:32;99109.63;;;7.43;100.00
59608;BME280;45426;44.726;10.390;2024-01-06T01:49:00;99107.38;;;7.73;100.00
59608;BME280;45426;44.726;10.390;2024-01-06T01:51:34;99108.47;;;7.72;100.00
59608;BME280;45426;44.726;10.390;2024-01-06T01:54:01;99101.72;;;7.78;100.00
59608;BME280;45426;44.726;10.390;2024-01-06T01:56:27;99109.09;;;7.66;100.00
59608;BME280;45426;44.726;10.390;2024-01-06T01:58:55;99111.34;;;7.92;100.00
59608;BME280;45426;44.726;10.390;2024-01-06T02:01:20;99101.97;;;7.73;100.00
59608;BME280;45426;44.726;10.390;2024-01-06T02:03:46;99106.69;;;7.76;100.00
59608;BME280;45426;44.726;10.390;2024-01-06T02:06:12;99113.16;;;7.88;100.00
59608;BME280;45426;44.726;10.390;2024-01-06T02:08:37;99114.94;;;7.68;100.00
59608;BME280;45426;44.726;10.390;2024-01-06T02:11:04;99107.22;;;7.82;100.00
59608;BME280;45426;44.726;10.390;2024-01-06T02:13:34;99102.78;;;7.90;100.00
59608;BME280;45426;44.726;10.390;2024-01-06T02:16:00;99092.25;;;8.01;100.00
59608;BME280;45426;44.726;10.390;2024-01-06T02:18:26;99092.16;;;7.97;100.00
59608;BME280;45426;44.726;10.390;2024-01-06T02:20:52;99082.34;;;7.76;100.00
59608;BME280;45426;44.726;10.390;2024-01-06T02:23:19;99084.75;;;7.66;100.00
59608;BME280;45426;44.726;10.390;2024-01-06T02:25:44;99075.50;;;7.67;100.00
59608;BME280;45426;44.726;10.390;2024-01-06T02:28:10;99078.09;;;7.91;100.00
59608;BME280;45426;44.726;10.390;2024-01-06T02:30:35;99082.75;;;7.63;100.00
59608;BME280;45426;44.726;10.390;2024-01-06T02:33:00;99081.19;;;7.62;100.00
59608;BME280;45426;44.726;10.390;2024-01-06T02:35:26;99086.41;;;7.70;100.00
59608;BME280;45426;44.726;10.390;2024-01-06T02:37:51;99089.50;;;7.69;100.00
59608;BME280;45426;44.726;10.390;2024-01-06T02:40:17;99094.28;;;7.75;100.00
59608;BME280;45426;44.726;10.390;2024-01-06T02:42:42;99090.66;;;7.55;100.00
59608;BME280;45426;44.726;10.390;2024-01-06T02:45:08;99082.94;;;7.70;100.00
59608;BME280;45426;44.726;10.390;2024-01-06T02:47:34;99086.69;;;7.65;100.00
59608;BME280;45426;44.726;10.390;2024-01-06T02:50:00;99082.25;;;7.73;100.00
59608;BME280;45426;44.726;10.390;2024-01-06T02:52:25;99081.53;;;7.60;100.00
59608;BME280;45426;44.726;10.390;2024-01-06T02:54:51;99082.34;;;7.76;100.00
59608;BME280;45426;44.726;10.390;2024-01-06T02:57:18;99086.47;;;7.86;100.00
59608;BME280;45426;44.726;10.390;2024-01-06T02:59:43;99077.53;;;7.70;100.00
59608;BME280;45426;44.726;10.390;2024-01-06T03:02:09;99083.91;;;7.77;100.00
59608;BME280;45426;44.726;10.390;2024-01-06T03:04:34;99079.69;;;7.64;100.00
59608;BME280;45426;44.726;10.390;2024-01-06T03:07:00;99073.81;;;7.74;100.00
59608;BME280;45426;44.726;10.390;2024-01-06T03:09:25;99079.78;;;7.68;100.00
59608;BME280;45426;44.726;10.390;2024-01-06T03:11:51;99083.19;;;7.65;100.00
59608;BME280;45426;44.726;10.390;2024-01-06T03:14:16;99080.66;;;7.56;100.00
59608;BME280;45426;44.726;10.390;2024-01-06T03:16:41;99082.06;;;7.66;100.00
59608;BME280;45426;44.726;10.390;2024-01-06T03:19:07;99084.53;;;7.71;100.00
59608;BME280;45426;44.726;10.390;2024-01-06T03:21:32;99084.22;;;7.60;100.00
59608;BME280;45426;44.726;10.390;2024-01-06T03:23:58;99087.69;;;7.32;100.00
59608;BME280;45426;44.726;10.390;2024-01-06T03:26:23;99090.94;;;7.38;100.00
59608;BME280;45426;44.726;10.390;2024-01-06T03:28:49;99089.81;;;7.67;100.00
59608;BME280;45426;44.726;10.390;2024-01-06T03:31:15;99086.84;;;7.72;100.00
59608;BME280;45426;44.726;10.390;2024-01-06T03:33:40;99084.97;;;7.73;100.00
59608;BME280;45426;44.726;10.390;2024-01-06T03:36:06;99084.53;;;7.71;100.00
59608;BME280;45426;44.726;10.390;2024-01-06T03:38:33;99072.53;;;7.56;100.00
59608;BME280;45426;44.726;10.390;2024-01-06T03:40:58;99072.97;;;7.30;100.00
59608;BME280;45426;44.726;10.390;2024-01-06T03:43:24;99065.16;;;7.41;100.00
59608;BME280;45426;44.726;10.390;2024-01-06T03:45:49;99070.38;;;7.33;100.00
59608;BME280;45426;44.726;10.390;2024-01-06T03:48:14;99073.53;;;7.23;100.00
59608;BME280;45426;44.726;10.390;2024-01-06T03:50:40;99066.06;;;7.45;100.00
59608;BME280;45426;44.726;10.390;2024-01-06T03:53:05;99066.53;;;7.63;100.00
59608;BME280;45426;44.726;10.390;2024-01-06T03:55:31;99065.88;;;7.53;100.00
59608;BME280;45426;44.726;10.390;2024-01-06T03:57:56;99070.56;;;7.41;100.00
59608;BME280;45426;44.726;10.390;2024-01-06T04:00:21;99063.09;;;7.78;100.00
59608;BME280;45426;44.726;10.390;2024-01-06T04:02:47;99055.22;;;7.73;100.00
59608;BME280;45426;44.726;10.390;2024-01-06T04:05:13;99067.41;;;7.67;100.00
59608;BME280;45426;44.726;10.390;2024-01-06T04:07:38;99066.38;;;7.71;100.00
59608;BME280;45426;44.726;10.390;2024-01-06T04:10:04;99065.59;;;7.87;100.00
59608;BME280;45426;44.726;10.390;2024-01-06T04:12:29;99069.03;;;7.55;100.00
59608;BME280;45426;44.726;10.390;2024-01-06T04:14:54;99067.22;;;7.60;100.00
59608;BME280;45426;44.726;10.390;2024-01-06T04:17:20;99059.41;;;7.42;100.00
59608;BME280;45426;44.726;10.390;2024-01-06T04:19:45;99059.94;;;7.48;100.00
59608;BME280;45426;44.726;10.390;2024-01-06T04:22:11;99056.09;;;7.77;100.00
59608;BME280;45426;44.726;10.390;2024-01-06T04:24:36;99048.41;;;7.79;100.00
59608;BME280;45426;44.726;10.390;2024-01-06T04:27:04;99059.41;;;7.42;100.00
59608;BME280;45426;44.726;10.390;2024-01-06T04:29:30;99059.06;;;7.44;100.00
59608;BME280;45426;44.726;10.390;2024-01-06T04:31:55;99056.25;;;7.40;100.00
59608;BME280;45426;44.726;10.390;2024-01-06T04:34:20;99055.44;;;7.52;100.00
59608;BME280;45426;44.726;10.390;2024-01-06T04:36:46;99052.03;;;7.55;100.00
59608;BME280;45426;44.726;10.390;2024-01-06T04:39:11;99050.03;;;7.52;100.00
59608;BME280;45426;44.726;10.390;2024-01-06T04:41:39;99043.94;;;7.55;100.00
59608;BME280;45426;44.726;10.390;2024-01-06T04:44:05;99052.09;;;7.43;100.00
59608;BME280;45426;44.726;10.390;2024-01-06T04:46:30;99051.19;;;7.67;100.00
59608;BME280;45426;44.726;10.390;2024-01-06T04:48:56;99051.47;;;7.77;100.00
59608;BME280;45426;44.726;10.390;2024-01-06T04:51:21;99060.25;;;7.58;100.00
59608;BME280;45426;44.726;10.390;2024-01-06T04:53:47;99051.09;;;7.63;100.00
59608;BME280;45426;44.726;10.390;2024-01-06T04:56:12;99054.78;;;7.71;100.00
59608;BME280;45426;44.726;10.390;2024-01-06T04:58:38;99052.81;;;7.84;100.00
59608;BME280;45426;44.726;10.390;2024-01-06T05:01:04;99055.25;;;7.45;100.00
59608;BME280;45426;44.726;10.390;2024-01-06T05:03:30;99051.44;;;7.62;100.00
59608;BME280;45426;44.726;10.390;2024-01-06T05:05:55;99055.06;;;7.53;100.00
59608;BME280;45426;44.726;10.390;2024-01-06T05:08:20;99044.91;;;7.63;100.00
59608;BME280;45426;44.726;10.390;2024-01-06T05:10:48;99042.81;;;7.72;100.00
59608;BME280;45426;44.726;10.390;2024-01-06T05:13:14;99042.81;;;7.72;100.00
59608;BME280;45426;44.726;10.390;2024-01-06T05:15:39;99040.50;;;7.86;100.00
59608;BME280;45426;44.726;10.390;2024-01-06T05:18:05;99049.91;;;7.76;100.00
59608;BME280;45426;44.726;10.390;2024-01-06T05:20:30;99042.13;;;7.75;100.00
59608;BME280;45426;44.726;10.390;2024-01-06T05:22:56;99048.59;;;7.86;100.00
59608;BME280;45426;44.726;10.390;2024-01-06T05:25:21;99044.94;;;7.94;100.00
59608;BME280;45426;44.726;10.390;2024-01-06T05:27:46;99048.03;;;7.65;100.00
59608;BME280;45426;44.726;10.390;2024-01-06T05:30:12;99044.84;;;7.75;100.00
59608;BME280;45426;44.726;10.390;2024-01-06T05:32:38;99042.66;;;7.96;100.00
59608;BME280;45426;44.726;10.390;2024-01-06T05:35:04;99039.19;;;7.80;100.00
59608;BME280;45426;44.726;10.390;2024-01-06T05:37:29;99044.22;;;7.66;100.00
59608;BME280;45426;44.726;10.390;2024-01-06T05:39:55;99040.94;;;7.88;100.00
59608;BME280;45426;44.726;10.390;2024-01-06T05:42:20;99031.22;;;7.71;100.00
59608;BME280;45426;44.726;10.390;2024-01-06T05:44:46;99039.44;;;7.75;100.00
59608;BME280;45426;44.726;10.390;2024-01-06T05:47:11;99035.69;;;7.80;100.00
59608;BME280;45426;44.726;10.390;2024-01-06T05:49:41;99030.91;;;7.89;100.00
59608;BME280;45426;44.726;10.390;2024-01-06T05:52:07;99037.69;;;7.98;100.00
59608;BME280;45426;44.726;10.390;2024-01-06T05:54:32;99033.59;;;7.89;100.00
59608;BME280;45426;44.726;10.390;2024-01-06T05:56:58;99028.44;;;7.68;100.00
59608;BME280;45426;44.726;10.390;2024-01-06T05:59:24;99027.84;;;7.74;100.00
59608;BME280;45426;44.726;10.390;2024-01-06T06:01:50;99022.25;;;7.67;100.00
59608;BME280;45426;44.726;10.390;2024-01-06T06:04:15;99022.06;;;7.76;100.00
59608;BME280;45426;44.726;10.390;2024-01-06T06:06:41;99017.47;;;7.92;100.00
59608;BME280;45426;44.726;10.390;2024-01-06T06:09:06;99011.19;;;7.88;100.00
59608;BME280;45426;44.726;10.390;2024-01-06T06:11:33;99008.91;;;7.74;100.00
59608;BME280;45426;44.726;10.390;2024-01-06T06:13:58;99009.06;;;7.82;100.00
59608;BME280;45426;44.726;10.390;2024-01-06T06:16:24;99015.97;;;7.79;100.00
59608;BME280;45426;44.726;10.390;2024-01-06T06:18:49;99021.91;;;7.85;100.00
59608;BME280;45426;44.726;10.390;2024-01-06T06:21:15;99018.09;;;7.86;100.00
59608;BME280;45426;44.726;10.390;2024-01-06T06:23:41;99021.66;;;7.90;100.00
59608;BME280;45426;44.726;10.390;2024-01-06T06:26:06;99020.78;;;7.86;100.00
59608;BME280;45426;44.726;10.390;2024-01-06T06:28:33;99021.38;;;7.79;100.00
59608;BME280;45426;44.726;10.390;2024-01-06T06:30:59;99024.53;;;7.81;100.00
59608;BME280;45426;44.726;10.390;2024-01-06T06:33:25;99015.03;;;8.03;100.00
59608;BME280;45426;44.726;10.390;2024-01-06T06:35:51;99016.16;;;7.86;100.00
59608;BME280;45426;44.726;10.390;2024-01-06T06:38:16;99012.06;;;7.92;100.00
59608;BME280;45426;44.726;10.390;2024-01-06T06:40:42;99017.47;;;7.92;100.00
59608;BME280;45426;44.726;10.390;2024-01-06T06:43:07;99020.06;;;7.89;100.00
59608;BME280;45426;44.726;10.390;2024-01-06T06:45:33;99022.88;;;7.92;100.00
59608;BME280;45426;44.726;10.390;2024-01-06T06:47:58;99026.19;;;7.86;100.00
59608;BME280;45426;44.726;10.390;2024-01-06T06:50:24;99021.91;;;7.85;100.00
59608;BME280;45426;44.726;10.390;2024-01-06T06:52:49;99022.03;;;8.04;100.00
59608;BME280;45426;44.726;10.390;2024-01-06T06:55:15;99024.72;;;7.88;100.00
59608;BME280;45426;44.726;10.390;2024-01-06T06:57:40;99021.38;;;7.79;100.00
59608;BME280;45426;44.726;10.390;2024-01-06T07:00:06;99026.34;;;7.77;100.00
59608;BME280;45426;44.726;10.390;2024-01-06T07:02:34;99033.44;;;7.97;100.00
59608;BME280;45426;44.726;10.390;2024-01-06T07:05:00;99029.97;;;7.97;100.00
59608;BME280;45426;44.726;10.390;2024-01-06T07:07:25;99034.66;;;8.00;100.00
59608;BME280;45426;44.726;10.390;2024-01-06T07:09:50;99022.63;;;7.97;100.00
59608;BME280;45426;44.726;10.390;2024-01-06T07:12:16;99021.47;;;7.98;100.00
59608;BME280;45426;44.726;10.390;2024-01-06T07:14:41;99025.38;;;7.85;100.00
59608;BME280;45426;44.726;10.390;2024-01-06T07:17:07;99022.84;;;7.61;100.00
59608;BME280;45426;44.726;10.390;2024-01-06T07:19:36;99013.16;;;7.60;100.00
59608;BME280;45426;44.726;10.390;2024-01-06T07:22:01;99014.31;;;7.90;100.00
59608;BME280;45426;44.726;10.390;2024-01-06T07:24:27;99025.75;;;8.00;100.00
59608;BME280;45426;44.726;10.390;2024-01-06T07:26:52;99036.91;;;7.82;100.00
59608;BME280;45426;44.726;10.390;2024-01-06T07:29:19;99036.06;;;8.10;100.00
59608;BME280;45426;44.726;10.390;2024-01-06T07:31:45;99035.78;;;7.83;100.00
59608;BME280;45426;44.726;10.390;2024-01-06T07:34:10;99037.94;;;7.77;100.00
59608;BME280;45426;44.726;10.390;2024-01-06T07:36:36;99043.81;;;7.95;100.00
59608;BME280;45426;44.726;10.390;2024-01-06T07:39:03;99055.91;;;7.70;100.00
59608;BME280;45426;44.726;10.390;2024-01-06T07:41:29;99056.91;;;8.09;100.00
59608;BME280;45426;44.726;10.390;2024-01-06T07:43:57;99050.47;;;8.14;100.00
59608;BME280;45426;44.726;10.390;2024-01-06T07:46:23;99054.53;;;8.08;100.00
59608;BME280;45426;44.726;10.390;2024-01-06T07:48:48;99051.69;;;8.16;100.00
59608;BME280;45426;44.726;10.390;2024-01-06T07:51:14;99042.50;;;8.05;100.00
59608;BME280;45426;44.726;10.390;2024-01-06T07:53:39;99059.09;;;8.04;100.00
59608;BME280;45426;44.726;10.390;2024-01-06T07:56:05;99056.72;;;8.02;100.00
59608;BME280;45426;44.726;10.390;2024-01-06T07:58:30;99057.69;;;7.94;100.00
59608;BME280;45426;44.726;10.390;2024-01-06T08:00:56;99056.56;;;7.95;100.00
59608;BME280;45426;44.726;10.390;2024-01-06T08:03:22;99054.91;;;8.06;100.00
59608;BME280;45426;44.726;10.390;2024-01-06T08:05:47;99050.72;;;8.09;100.00
59608;BME280;45426;44.726;10.390;2024-01-06T08:08:13;99053.06;;;8.26;100.00
59608;BME280;45426;44.726;10.390;2024-01-06T08:10:42;99052.97;;;7.75;100.00
59608;BME280;45426;44.726;10.390;2024-01-06T08:13:07;99046.50;;;7.80;100.00
59608;BME280;45426;44.726;10.390;2024-01-06T08:15:33;99040.88;;;7.56;100.00
59608;BME280;45426;44.726;10.390;2024-01-06T08:17:58;99047.00;;;7.69;100.00
59608;BME280;45426;44.726;10.390;2024-01-06T08:20:24;99046.38;;;7.60;100.00
59608;BME280;45426;44.726;10.390;2024-01-06T08:22:49;99048.94;;;7.69;100.00
59608;BME280;45426;44.726;10.390;2024-01-06T08:25:14;99050.09;;;7.84;100.00
59608;BME280;45426;44.726;10.390;2024-01-06T08:27:43;99052.81;;;7.84;100.00
59608;BME280;45426;44.726;10.390;2024-01-06T08:30:08;99063.09;;;7.78;100.00
59608;BME280;45426;44.726;10.390;2024-01-06T08:32:34;99061.81;;;8.20;100.00
59608;BME280;45426;44.726;10.390;2024-01-06T08:34:59;99068.88;;;8.24;100.00
59608;BME280;45426;44.726;10.390;2024-01-06T08:37:25;99074.19;;;8.05;100.00
59608;BME280;45426;44.726;10.390;2024-01-06T08:39:50;99069.22;;;8.23;100.00
59608;BME280;45426;44.726;10.390;2024-01-06T08:42:15;99063.00;;;7.74;100.00
59608;BME280;45426;44.726;10.390;2024-01-06T08:44:41;99069.13;;;8.03;100.00
59608;BME280;45426;44.726;10.390;2024-01-06T08:47:06;99070.69;;;8.20;100.00
59608;BME280;45426;44.726;10.390;2024-01-06T08:49:32;99066.56;;;7.94;100.00
59608;BME280;45426;44.726;10.390;2024-01-06T08:51:58;99074.38;;;8.12;100.00
59608;BME280;45426;44.726;10.390;2024-01-06T08:54:23;99063.81;;;8.07;100.00
59608;BME280;45426;44.726;10.390;2024-01-06T08:56:49;99064.41;;;7.84;100.00
59608;BME280;45426;44.726;10.390;2024-01-06T08:59:14;99069.72;;;7.96;100.00
59608;BME280;45426;44.726;10.390;2024-01-06T09:01:40;99076.75;;;7.85;100.00
59608;BME280;45426;44.726;10.390;2024-01-06T09:04:05;99073.22;;;7.97;100.00
59608;BME280;45426;44.726;10.390;2024-01-06T09:06:32;99074.88;;;7.86;100.00
59608;BME280;45426;44.726;10.390;2024-01-06T09:08:57;99076.81;;;8.33;100.00
59608;BME280;45426;44.726;10.390;2024-01-06T09:11:22;99076.38;;;8.15;100.00
59608;BME280;45426;44.726;10.390;2024-01-06T09:13:48;99074.25;;;7.76;100.00
59608;BME280;45426;44.726;10.390;2024-01-06T09:16:13;99076.13;;;8.20;100.00
59608;BME280;45426;44.726;10.390;2024-01-06T09:18:39;99074.25;;;7.92;100.00
59608;BME280;45426;44.726;10.390;2024-01-06T09:21:05;99073.81;;;7.90;100.00
59608;BME280;45426;44.726;10.390;2024-01-06T09:23:30;99084.44;;;7.83;100.00
59608;BME280;45426;44.726;10.390;2024-01-06T09:25:57;99085.25;;;8.00;100.00
59608;BME280;45426;44.726;10.390;2024-01-06T09:28:23;99080.81;;;8.07;100.00
59608;BME280;45426;44.726;10.390;2024-01-06T09:30:48;99087.47;;;8.10;100.00
59608;BME280;45426;44.726;10.390;2024-01-06T09:33:14;99078.38;;;8.18;100.00
59608;BME280;45426;44.726;10.390;2024-01-06T09:35:41;99087.28;;;8.19;100.00
59608;BME280;45426;44.726;10.390;2024-01-06T09:38:07;99073.72;;;7.87;100.00
59608;BME280;45426;44.726;10.390;2024-01-06T09:40:34;99075.50;;;7.95;100.00
59608;BME280;45426;44.726;10.390;2024-01-06T09:43:00;99080.72;;;8.04;100.00
59608;BME280;45426;44.726;10.390;2024-01-06T09:45:25;99079.94;;;8.19;100.00
59608;BME280;45426;44.726;10.390;2024-01-06T09:47:51;99077.50;;;8.14;100.00
59608;BME280;45426;44.726;10.390;2024-01-06T09:50:21;99080.09;;;7.78;100.00
59608;BME280;45426;44.726;10.390;2024-01-06T09:52:48;99075.84;;;8.09;100.00
59608;BME280;45426;44.726;10.390;2024-01-06T09:55:25;99070.16;;;7.83;100.00
59608;BME280;45426;44.726;10.390;2024-01-06T09:57:52;99074.47;;;7.71;100.00
59608;BME280;45426;44.726;10.390;2024-01-06T10:00:19;99083.31;;;7.84;100.00
59608;BME280;45426;44.726;10.390;2024-01-06T10:02:45;99066.13;;;7.92;100.00
59608;BME280;45426;44.726;10.390;2024-01-06T10:05:12;99080.13;;;8.10;100.00
59608;BME280;45426;44.726;10.390;2024-01-06T10:07:41;99076.63;;;8.26;100.00
59608;BME280;45426;44.726;10.390;2024-01-06T10:10:07;99075.84;;;7.93;100.00
59608;BME280;45426;44.726;10.390;2024-01-06T10:12:32;99069.84;;;8.16;100.00
59608;BME280;45426;44.726;10.390;2024-01-06T10:14:58;99072.59;;;8.04;100.00
59608;BME280;45426;44.726;10.390;2024-01-06T10:17:23;99065.72;;;8.22;100.00
59608;BME280;45426;44.726;10.390;2024-01-06T10:19:49;99068.88;;;8.24;100.00
59608;BME280;45426;44.726;10.390;2024-01-06T10:22:14;99063.97;;;7.98;100.00
59608;BME280;45426;44.726;10.390;2024-01-06T10:24:40;99063.47;;;8.08;100.00
59608;BME280;45426;44.726;10.390;2024-01-06T10:27:06;99056.06;;;8.21;100.00
59608;BME280;45426;44.726;10.390;2024-01-06T10:29:32;99045.47;;;8.16;100.00
59608;BME280;45426;44.726;10.390;2024-01-06T10:31:58;99047.03;;;8.17;100.00
59608;BME280;45426;44.726;10.390;2024-01-06T10:34:24;99038.66;;;8.22;100.00
59608;BME280;45426;44.726;10.390;2024-01-06T10:36:50;99044.69;;;8.31;100.00
59608;BME280;45426;44.726;10.390;2024-01-06T10:39:20;99035.72;;;8.27;100.00
59608;BME280;45426;44.726;10.390;2024-01-06T10:41:46;99046.34;;;8.52;100.00
59608;BME280;45426;44.726;10.390;2024-01-06T10:44:14;99047.13;;;8.36;100.00
59608;BME280;45426;44.726;10.390;2024-01-06T10:46:41;99037.53;;;8.23;100.00
59608;BME280;45426;44.726;10.390;2024-01-06T10:49:08;99033.94;;;8.19;100.00
59608;BME280;45426;44.726;10.390;2024-01-06T10:51:37;99038.84;;;8.13;100.00
59608;BME280;45426;44.726;10.390;2024-01-06T10:54:02;99038.41;;;7.95;100.00
59608;BME280;45426;44.726;10.390;2024-01-06T10:56:29;99041.72;;;8.36;100.00
59608;BME280;45426;44.726;10.390;2024-01-06T10:58:56;99034.75;;;8.51;100.00
59608;BME280;45426;44.726;10.390;2024-01-06T11:01:23;99035.59;;;8.40;100.00
59608;BME280;45426;44.726;10.390;2024-01-06T11:03:50;99029.94;;;8.61;100.00
59608;BME280;45426;44.726;10.390;2024-01-06T11:06:16;99018.00;;;8.46;100.00
59608;BME280;45426;44.726;10.390;2024-01-06T11:11:39;99020.41;;;8.35;100.00
59608;BME280;45426;44.726;10.390;2024-01-06T11:14:17;99012.31;;;8.35;100.00
59608;BME280;45426;44.726;10.390;2024-01-06T11:16:43;99012.03;;;8.40;100.00
59608;BME280;45426;44.726;10.390;2024-01-06T11:22:21;99005.25;;;8.46;100.00
59608;BME280;45426;44.726;10.390;2024-01-06T11:24:48;98995.53;;;8.45;100.00
59608;BME280;45426;44.726;10.390;2024-01-06T11:27:18;98995.53;;;8.61;100.00
59608;BME280;45426;44.726;10.390;2024-01-06T11:29:45;98975.44;;;8.82;100.00
59608;BME280;45426;44.726;10.390;2024-01-06T11:34:52;98977.09;;;8.51;100.00
59608;BME280;45426;44.726;10.390;2024-01-06T11:42:47;98962.41;;;8.68;100.00
59608;BME280;45426;44.726;10.390;2024-01-06T11:45:13;98967.31;;;8.82;100.00
59608;BME280;45426;44.726;10.390;2024-01-06T11:47:39;98959.47;;;8.77;100.00
59608;BME280;45426;44.726;10.390;2024-01-06T11:50:06;98969.19;;;8.26;100.00
59608;BME280;45426;44.726;10.390;2024-01-06T11:52:32;98966.56;;;8.46;100.00
59608;BME280;45426;44.726;10.390;2024-01-06T11:54:59;98956.75;;;8.57;100.00
59608;BME280;45426;44.726;10.390;2024-01-06T11:57:28;98965.53;;;8.34;100.00
59608;BME280;45426;44.726;10.390;2024-01-06T11:59:54;98957.91;;;8.40;100.00
59608;BME280;45426;44.726;10.390;2024-01-06T12:02:20;98951.06;;;8.62;100.00
59608;BME280;45426;44.726;10.390;2024-01-06T12:04:52;98952.47;;;8.56;100.00
59608;BME280;45426;44.726;10.390;2024-01-06T12:07:21;98950.69;;;8.64;100.00
59608;BME280;45426;44.726;10.390;2024-01-06T12:10:01;98947.31;;;8.51;100.00
59608;BME280;45426;44.726;10.390;2024-01-06T12:12:27;98951.19;;;8.50;100.00
59608;BME280;45426;44.726;10.390;2024-01-06T12:14:52;98955.94;;;8.21;100.00
59608;BME280;45426;44.726;10.390;2024-01-06T12:17:20;98937.16;;;8.44;100.00
59608;BME280;45426;44.726;10.390;2024-01-06T12:19:46;98944.16;;;8.29;100.00
59608;BME280;45426;44.726;10.390;2024-01-06T12:22:14;98936.38;;;8.44;100.00
59608;BME280;45426;44.726;10.390;2024-01-06T12:24:40;98935.03;;;8.73;100.00
59608;BME280;45426;44.726;10.390;2024-01-06T12:27:08;98937.22;;;8.48;100.00
59608;BME280;45426;44.726;10.390;2024-01-06T12:29:43;98924.81;;;8.47;100.00
59608;BME280;45426;44.726;10.390;2024-01-06T12:32:11;98930.44;;;8.38;100.00
59608;BME280;45426;44.726;10.390;2024-01-06T12:34:38;98932.88;;;8.43;100.00
59608;BME280;45426;44.726;10.390;2024-01-06T12:37:05;98936.72;;;8.26;100.00
59608;BME280;45426;44.726;10.390;2024-01-06T12:39:31;98933.41;;;8.17;100.00
59608;BME280;45426;44.726;10.390;2024-01-06T12:41:57;98926.19;;;8.21;100.00
59608;BME280;45426;44.726;10.390;2024-01-06T12:44:25;98916.69;;;8.47;100.00
59608;BME280;45426;44.726;10.390;2024-01-06T12:46:51;98920.72;;;8.37;100.00
59608;BME280;45426;44.726;10.390;2024-01-06T12:49:17;98914.53;;;8.36;100.00
59608;BME280;45426;44.726;10.390;2024-01-06T12:51:42;98904.31;;;8.65;100.00
59608;BME280;45426;44.726;10.390;2024-01-06T12:54:08;98905.88;;;8.47;100.00
59608;BME280;45426;44.726;10.390;2024-01-06T12:56:33;98906.47;;;8.56;100.00
59608;BME280;45426;44.726;10.390;2024-01-06T12:58:59;98903.16;;;8.47;100.00